Time;durP1;ratioP1;P1;durP2;ratioP2;P2;SDS_P1;SDS_P2;PMS_P1;PMS_P2;Temp;Humidity;BMP_temperature;BMP_pressure;BME280_temperature;BME280_humidity;BME280_pressure;Samples;Min_cycle;Max_cycle;Signal;HPM_P1;HPM_P2
2023/01/15 00:02:25;;;;;;;4.90;4.43;;;4.30;99.90;;;;;;5129906;28;20260;-83
2023/01/15 00:04:51;;;;;;;7.27;4.70;;;4.30;99.90;;;;;;5130095;28;20173;-87
2023/01/15 00:07:16;;;;;;;5.30;4.50;;;4.20;99.90;;;;;;5130216;28;20237;-86
2023/01/15 00:09:42;;;;;;;5.57;4.27;;;4.20;99.90;;;;;;5130230;28;20177;-86
2023/01/15 00:12:08;;;;;;;4.50;3.93;;;4.20;99.90;;;;;;5130135;28;20190;-84
2023/01/15 00:14:34;;;;;;;5.87;4.50;;;4.30;99.90;;;;;;5118916;28;20204;-83
2023/01/15 00:16:59;;;;;;;4.50;4.03;;;4.30;99.90;;;;;;5119263;28;20689;-85
2023/01/15 00:19:25;;;;;;;4.50;4.10;;;4.30;99.90;;;;;;5099712;28;20174;-85
2023/01/15 00:21:52;;;;;;;4.20;3.80;;;4.30;99.90;;;;;;5117311;28;20206;-87
2023/01/15 00:29:46;;;;;;;5.20;3.80;;;4.20;99.90;;;;;;5119337;28;20222;-85
2023/01/15 00:32:12;;;;;;;5.53;4.20;;;4.30;99.90;;;;;;5128114;28;20209;-83
2023/01/15 00:34:38;;;;;;;4.57;3.53;;;4.30;99.90;;;;;;5134730;28;20197;-84
2023/01/15 00:37:04;;;;;;;5.13;4.33;;;4.30;99.90;;;;;;5118765;28;20620;-85
2023/01/15 00:39:29;;;;;;;5.50;4.43;;;4.40;99.90;;;;;;5116663;28;20219;-84
2023/01/15 00:41:55;;;;;;;4.90;4.47;;;4.40;99.90;;;;;;5117236;28;20200;-84
2023/01/15 00:44:23;;;;;;;5.73;4.27;;;4.30;99.90;;;;;;5122851;28;20180;-83
2023/01/15 00:46:49;;;;;;;8.77;4.90;;;4.40;99.90;;;;;;5118179;28;20173;-84
2023/01/15 00:49:15;;;;;;;4.53;3.70;;;4.30;99.90;;;;;;5116094;28;20174;-84
2023/01/15 00:51:40;;;;;;;6.97;4.37;;;4.30;99.90;;;;;;5115738;28;20166;-85
2023/01/15 00:54:06;;;;;;;5.87;3.80;;;4.40;99.90;;;;;;5115123;28;20185;-84
2023/01/15 00:56:32;;;;;;;7.93;4.53;;;4.40;99.90;;;;;;5115410;28;20171;-85
2023/01/15 00:59:01;;;;;;;6.20;3.90;;;4.40;99.90;;;;;;5097059;28;20260;-85
2023/01/15 01:01:26;;;;;;;5.20;3.87;;;4.40;99.90;;;;;;5115044;28;20232;-86
2023/01/15 01:03:52;;;;;;;5.77;3.70;;;4.50;99.90;;;;;;5097158;28;20184;-86
2023/01/15 01:06:19;;;;;;;6.20;4.30;;;4.40;99.90;;;;;;5115856;28;20216;-84
2023/01/15 01:08:46;;;;;;;4.40;3.83;;;4.50;99.90;;;;;;5102732;28;20193;-85
2023/01/15 01:11:14;;;;;;;4.23;3.83;;;4.50;99.90;;;;;;5137587;28;20173;-86
2023/01/15 01:13:41;;;;;;;4.63;3.70;;;4.50;99.90;;;;;;5138506;28;20233;-84
2023/01/15 01:16:36;;;;;;;4.67;3.57;;;4.60;99.90;;;;;;5121826;28;20177;-86
2023/01/15 01:19:08;;;;;;;3.83;3.37;;;4.50;99.90;;;;;;5116653;28;20228;-84
2023/01/15 01:21:36;;;;;;;4.27;3.40;;;4.50;99.90;;;;;;5097632;28;20253;-84
2023/01/15 01:24:02;;;;;;;3.63;3.13;;;4.40;99.90;;;;;;5114478;28;20573;-83
2023/01/15 01:26:28;;;;;;;5.07;3.47;;;4.40;99.90;;;;;;5095859;28;20174;-86
2023/01/15 01:28:55;;;;;;;3.60;3.07;;;4.50;99.90;;;;;;5114562;28;20638;-83
2023/01/15 01:31:21;;;;;;;3.70;3.30;;;4.50;99.90;;;;;;5114401;28;20170;-86
2023/01/15 01:33:52;;;;;;;4.00;3.37;;;4.60;99.90;;;;;;5114591;28;20184;-85
2023/01/15 01:36:18;;;;;;;3.23;3.03;;;4.60;99.90;;;;;;5114573;28;20667;-85
2023/01/15 01:38:48;;;;;;;4.63;3.67;;;4.60;99.90;;;;;;5114536;28;20197;-84
2023/01/15 01:41:16;;;;;;;4.40;3.03;;;4.60;99.90;;;;;;5114227;28;20186;-86
2023/01/15 01:43:55;;;;;;;4.40;3.40;;;4.60;99.90;;;;;;5095829;28;20173;-83
2023/01/15 01:46:21;;;;;;;3.43;3.13;;;4.70;99.90;;;;;;5090625;28;20182;-83
2023/01/15 01:48:52;;;;;;;3.93;3.57;;;4.70;99.90;;;;;;5107730;28;20619;-83
2023/01/15 01:51:21;;;;;;;3.50;3.17;;;4.60;99.90;;;;;;5114397;28;20214;-82
2023/01/15 01:53:46;;;;;;;3.97;3.30;;;4.70;99.90;;;;;;5096006;28;21023;-84
2023/01/15 01:56:16;;;;;;;3.90;3.57;;;4.80;99.90;;;;;;5096188;28;20174;-85
2023/01/15 01:58:46;;;;;;;4.00;3.70;;;4.80;99.90;;;;;;5096258;28;20540;-83
2023/01/15 02:01:12;;;;;;;5.27;3.77;;;4.70;99.90;;;;;;5113544;28;20270;-86
2023/01/15 02:03:39;;;;;;;4.33;3.63;;;4.80;99.90;;;;;;5114018;28;20166;-84
2023/01/15 02:06:08;;;;;;;4.37;3.43;;;4.60;99.90;;;;;;5114330;28;20166;-84
2023/01/15 02:08:38;;;;;;;3.73;3.43;;;4.60;99.90;;;;;;5095766;28;20271;-84
2023/01/15 02:11:05;;;;;;;8.23;4.03;;;4.60;99.90;;;;;;5095581;28;20173;-85
2023/01/15 02:13:40;;;;;;;4.97;3.60;;;4.60;99.90;;;;;;5095424;28;20188;-86
2023/01/15 02:16:19;;;;;;;5.43;3.53;;;4.70;99.90;;;;;;5114008;28;20212;-87
2023/01/15 02:19:16;;;;;;;4.73;3.73;;;4.80;99.90;;;;;;5095820;28;20183;-86
2023/01/15 02:22:03;;;;;;;4.73;3.90;;;4.70;99.90;;;;;;5079032;28;20626;-87
2023/01/15 02:25:03;;;;;;;3.40;3.10;;;4.80;99.90;;;;;;5096684;28;20161;-86
2023/01/15 02:27:30;;;;;;;4.70;3.43;;;4.80;99.90;;;;;;5103771;28;20269;-85
2023/01/15 02:30:05;;;;;;;4.33;3.93;;;4.70;99.90;;;;;;5097631;28;20233;-85
2023/01/15 02:32:54;;;;;;;4.10;3.70;;;4.70;99.90;;;;;;5114307;28;20158;-83
2023/01/15 02:35:47;;;;;;;4.87;3.47;;;4.60;99.90;;;;;;5114691;28;20188;-82
2023/01/15 02:38:17;;;;;;;4.30;3.50;;;4.60;99.90;;;;;;5120120;28;20219;-83
2023/01/15 02:40:44;;;;;;;4.50;3.50;;;4.70;99.90;;;;;;5118940;28;20166;-84
2023/01/15 02:43:13;;;;;;;3.50;3.20;;;4.70;99.90;;;;;;5114163;28;20167;-84
2023/01/15 02:45:41;;;;;;;3.90;3.57;;;4.60;99.90;;;;;;5095155;28;20595;-84
2023/01/15 02:48:13;;;;;;;4.30;3.30;;;4.60;99.90;;;;;;5094929;28;20711;-85
2023/01/15 02:50:47;;;;;;;3.80;3.37;;;4.60;99.90;;;;;;5095043;28;20577;-84
2023/01/15 02:53:20;;;;;;;4.93;3.90;;;4.60;99.90;;;;;;5100490;28;20213;-84
2023/01/15 02:55:49;;;;;;;3.83;3.47;;;4.60;99.90;;;;;;5123212;28;20162;-83
2023/01/15 02:58:29;;;;;;;3.97;3.00;;;4.60;99.90;;;;;;5097270;28;20587;-83
2023/01/15 03:00:57;;;;;;;3.33;3.03;;;4.60;99.90;;;;;;5115601;28;20185;-83
2023/01/15 03:03:53;;;;;;;3.30;3.00;;;4.60;99.90;;;;;;5131272;28;20170;-84
2023/01/15 03:06:33;;;;;;;3.60;3.10;;;4.60;99.90;;;;;;5137624;28;20159;-84
2023/01/15 03:09:00;;;;;;;4.67;3.33;;;4.50;99.90;;;;;;5125203;28;20241;-84
2023/01/15 03:11:27;;;;;;;3.50;3.10;;;4.50;99.90;;;;;;5096656;28;20452;-85
2023/01/15 03:14:17;;;;;;;5.30;3.10;;;4.50;99.90;;;;;;5096075;28;20174;-84
2023/01/15 03:17:00;;;;;;;3.57;3.00;;;4.60;99.90;;;;;;5113140;28;20621;-83
2023/01/15 03:19:35;;;;;;;3.40;3.10;;;4.50;99.90;;;;;;5113200;28;20765;-83
2023/01/15 03:22:08;;;;;;;4.13;3.57;;;4.40;99.90;;;;;;5113207;28;20200;-85
2023/01/15 03:24:51;;;;;;;3.87;3.57;;;4.40;99.90;;;;;;5095271;28;20543;-83
2023/01/15 03:27:17;;;;;;;4.10;3.33;;;4.40;99.90;;;;;;5094775;28;20181;-87
2023/01/15 03:29:46;;;;;;;3.70;3.40;;;4.40;99.90;;;;;;5094805;28;20186;-85
2023/01/15 03:32:13;;;;;;;3.80;3.50;;;4.50;99.90;;;;;;5097664;28;20178;-83
2023/01/15 03:34:51;;;;;;;3.90;3.23;;;4.50;99.90;;;;;;5117306;28;20257;-85
2023/01/15 03:37:19;;;;;;;5.60;3.43;;;4.40;99.90;;;;;;5119943;28;20171;-85
2023/01/15 03:39:46;;;;;;;3.90;3.27;;;4.40;99.90;;;;;;5113212;28;20166;-86
2023/01/15 03:42:38;;;;;;;3.23;2.93;;;4.30;99.90;;;;;;5113149;28;20209;-86
2023/01/15 03:45:22;;;;;;;4.93;3.20;;;4.30;99.90;;;;;;5108896;28;20184;-85
2023/01/15 03:47:59;;;;;;;3.83;3.50;;;4.30;99.90;;;;;;5113142;28;20236;-85
2023/01/15 03:50:42;;;;;;;3.60;3.30;;;4.20;99.90;;;;;;5098513;28;20168;-86
2023/01/15 03:53:20;;;;;;;3.40;3.10;;;4.30;99.90;;;;;;5116214;28;20225;-84
2023/01/15 03:56:04;;;;;;;4.00;3.17;;;4.20;99.90;;;;;;5116395;28;20651;-85
2023/01/15 03:58:56;;;;;;;3.33;3.03;;;4.10;99.90;;;;;;5116206;28;20201;-84
2023/01/15 04:01:31;;;;;;;3.57;3.27;;;4.10;99.90;;;;;;5097718;28;20278;-84
2023/01/15 04:03:58;;;;;;;5.73;3.27;;;4.00;99.90;;;;;;5089333;28;20183;-83
2023/01/15 04:06:28;;;;;;;3.30;3.00;;;4.10;99.90;;;;;;5112874;28;20188;-85
2023/01/15 04:08:55;;;;;;;3.80;3.30;;;4.10;99.90;;;;;;5098007;28;20260;-86
2023/01/15 04:11:23;;;;;;;7.50;3.73;;;4.20;99.90;;;;;;5116209;28;20180;-85
2023/01/15 04:13:50;;;;;;;3.87;3.57;;;4.10;99.90;;;;;;5116156;28;20544;-85
2023/01/15 04:16:27;;;;;;;3.93;3.53;;;4.10;99.90;;;;;;5116299;28;20172;-86
2023/01/15 04:18:53;;;;;;;3.67;3.37;;;3.90;99.90;;;;;;5115951;28;20248;-85
2023/01/15 04:21:20;;;;;;;3.50;3.20;;;3.90;99.90;;;;;;5097853;28;20209;-87
2023/01/15 04:23:45;;;;;;;3.70;3.50;;;3.90;99.90;;;;;;5116113;28;20181;-86
2023/01/15 04:26:12;;;;;;;5.37;3.80;;;3.80;99.90;;;;;;5097570;28;20178;-85
2023/01/15 04:28:38;;;;;;;3.03;2.83;;;3.80;99.90;;;;;;5116144;28;20170;-85
2023/01/15 04:31:04;;;;;;;3.53;3.23;;;3.70;99.90;;;;;;5116970;28;20172;-86
2023/01/15 04:33:29;;;;;;;3.17;2.97;;;3.70;99.90;;;;;;5117833;28;20253;-86
2023/01/15 04:35:59;;;;;;;3.33;3.00;;;3.80;99.90;;;;;;5118302;28;20203;-85
2023/01/15 04:38:25;;;;;;;3.80;3.27;;;3.70;99.90;;;;;;5118847;28;20168;-86
2023/01/15 04:46:23;;;;;;;4.27;3.40;;;3.80;99.90;;;;;;5123778;28;20204;-85
2023/01/15 04:48:49;;;;;;;3.40;3.00;;;3.80;99.90;;;;;;5100074;28;20186;-88
2023/01/15 04:51:15;;;;;;;3.47;3.27;;;3.70;99.90;;;;;;5116890;28;20182;-87
2023/01/15 04:53:41;;;;;;;3.33;3.00;;;3.70;99.90;;;;;;5116775;28;20189;-87
2023/01/15 04:56:07;;;;;;;3.43;3.10;;;3.70;99.90;;;;;;5117429;28;20230;-85
2023/01/15 04:58:33;;;;;;;4.10;2.80;;;3.60;99.90;;;;;;5125118;28;20177;-86
2023/01/15 05:00:59;;;;;;;3.20;2.87;;;3.50;99.90;;;;;;5136314;28;20213;-89
2023/01/15 05:03:27;;;;;;;3.80;2.93;;;3.50;99.90;;;;;;5107136;28;20191;-82
2023/01/15 05:05:52;;;;;;;3.33;3.00;;;3.50;99.90;;;;;;5121175;28;20206;-83
2023/01/15 05:08:18;;;;;;;5.13;3.10;;;3.50;99.90;;;;;;5118351;28;20185;-85
2023/01/15 05:10:44;;;;;;;3.17;2.87;;;3.50;99.90;;;;;;5115662;28;20176;-84
2023/01/15 05:13:10;;;;;;;3.33;3.03;;;3.50;99.90;;;;;;5116212;28;20162;-84
2023/01/15 05:15:37;;;;;;;6.63;3.07;;;3.40;99.90;;;;;;5097844;28;20260;-83
2023/01/15 05:18:03;;;;;;;3.00;2.80;;;3.40;99.90;;;;;;5115293;28;20619;-84
2023/01/15 05:20:29;;;;;;;3.07;2.80;;;3.50;99.90;;;;;;5096740;28;20287;-86
2023/01/15 05:22:55;;;;;;;3.17;2.90;;;3.40;99.90;;;;;;5114761;28;20235;-87
2023/01/15 05:25:22;;;;;;;3.50;2.90;;;3.40;99.90;;;;;;5114976;28;20170;-85
2023/01/15 05:27:48;;;;;;;2.93;2.73;;;3.20;99.90;;;;;;5114900;28;20173;-84
2023/01/15 05:30:14;;;;;;;3.40;3.20;;;3.20;99.90;;;;;;5096368;28;20664;-84
2023/01/15 05:32:39;;;;;;;3.33;3.03;;;3.20;99.90;;;;;;5096211;28;20268;-84
2023/01/15 05:35:06;;;;;;;5.37;3.33;;;3.30;99.90;;;;;;5114472;28;20184;-86
2023/01/15 05:37:31;;;;;;;3.77;3.47;;;3.20;99.90;;;;;;5096365;28;20654;-84
2023/01/15 05:39:57;;;;;;;3.83;3.53;;;3.20;99.90;;;;;;5114609;28;20169;-85
2023/01/15 05:42:23;;;;;;;3.97;3.00;;;3.10;99.90;;;;;;5096323;28;20204;-86
2023/01/15 05:44:49;;;;;;;3.57;3.27;;;3.20;99.90;;;;;;5114352;28;20197;-85
2023/01/15 05:47:14;;;;;;;3.13;2.90;;;3.20;99.90;;;;;;5114674;28;20176;-86
2023/01/15 05:49:40;;;;;;;3.70;3.40;;;3.20;99.90;;;;;;5114380;28;20651;-86
2023/01/15 05:52:07;;;;;;;3.60;3.30;;;3.20;99.90;;;;;;5113987;28;20179;-84
2023/01/15 05:54:34;;;;;;;6.47;3.57;;;3.10;99.90;;;;;;5095750;28;20181;-85
2023/01/15 05:57:01;;;;;;;3.70;2.93;;;3.10;99.90;;;;;;5114351;28;20700;-87
2023/01/15 05:59:28;;;;;;;4.37;3.30;;;3.10;99.90;;;;;;5114366;28;20172;-84
2023/01/15 06:01:55;;;;;;;4.20;3.23;;;3.10;99.90;;;;;;5113823;28;20225;-85
2023/01/15 06:04:21;;;;;;;5.87;3.60;;;3.10;99.90;;;;;;5113878;28;20173;-86
2023/01/15 06:06:49;;;;;;;6.20;3.33;;;3.10;99.90;;;;;;5095613;28;20180;-85
2023/01/15 06:09:15;;;;;;;5.33;3.60;;;3.10;99.90;;;;;;5114021;28;20196;-85
2023/01/15 06:11:40;;;;;;;3.43;3.10;;;3.10;99.90;;;;;;5113280;28;20213;-86
2023/01/15 06:14:07;;;;;;;3.70;3.40;;;3.10;99.90;;;;;;5113693;28;20758;-84
2023/01/15 06:16:33;;;;;;;3.07;2.77;;;3.10;99.90;;;;;;5113716;28;20288;-86
2023/01/15 06:19:03;;;;;;;7.03;3.87;;;3.00;99.90;;;;;;5113417;28;20230;-86
2023/01/15 06:21:31;;;;;;;3.23;3.03;;;3.00;99.90;;;;;;5090287;28;20551;-85
2023/01/15 06:23:56;;;;;;;5.27;3.77;;;3.00;99.90;;;;;;5109484;28;20206;-85
2023/01/15 06:26:23;;;;;;;7.67;4.07;;;3.00;99.90;;;;;;5114327;28;20646;-87
2023/01/15 06:28:49;;;;;;;6.30;3.70;;;3.00;99.90;;;;;;5095469;28;20219;-85
2023/01/15 06:31:18;;;;;;;4.23;3.50;;;3.00;99.90;;;;;;5113395;28;20177;-84
2023/01/15 06:33:44;;;;;;;4.00;3.60;;;3.00;99.90;;;;;;5095187;28;20186;-85
2023/01/15 06:36:15;;;;;;;4.07;3.53;;;3.00;99.90;;;;;;5113884;28;20172;-84
2023/01/15 06:38:41;;;;;;;3.20;2.93;;;3.10;99.90;;;;;;5114141;28;20647;-86
2023/01/15 06:49:32;;;;;;;5.13;3.63;;;3.30;99.90;;;;;;5135600;27;20245;-84
2023/01/15 06:51:58;;;;;;;3.23;2.93;;;3.20;99.90;;;;;;5115348;28;20186;-87
2023/01/15 06:54:24;;;;;;;3.60;3.30;;;3.20;99.90;;;;;;5136599;27;20196;-84
2023/01/15 06:56:50;;;;;;;4.47;3.40;;;3.20;99.90;;;;;;5124048;28;20170;-85
2023/01/15 06:59:16;;;;;;;3.53;3.23;;;3.10;99.90;;;;;;5116591;28;20166;-84
2023/01/15 07:01:42;;;;;;;3.23;2.90;;;3.10;99.90;;;;;;5114247;28;20250;-85
2023/01/15 07:04:08;;;;;;;3.30;3.10;;;3.10;99.90;;;;;;5113541;28;20660;-84
2023/01/15 07:06:34;;;;;;;3.50;3.20;;;3.00;99.90;;;;;;5114023;28;20172;-86
2023/01/15 07:08:59;;;;;;;5.07;3.47;;;3.10;99.90;;;;;;5095527;28;20180;-82
2023/01/15 07:11:25;;;;;;;5.07;3.57;;;3.20;99.90;;;;;;5112904;28;20564;-85
2023/01/15 07:14:04;;;;;;;4.83;3.20;;;3.20;99.90;;;;;;5124119;28;20230;-84
2023/01/15 07:16:31;;;;;;;4.87;3.43;;;3.30;99.90;;;;;;5119154;28;20232;-82
2023/01/15 07:18:57;;;;;;;4.53;4.13;;;3.40;99.90;;;;;;5096132;28;20175;-86
2023/01/15 07:21:23;;;;;;;4.27;3.80;;;3.40;99.90;;;;;;5113785;28;20556;-87
2023/01/15 07:23:49;;;;;;;3.17;2.87;;;3.50;99.90;;;;;;5115514;28;20259;-87
2023/01/15 07:26:15;;;;;;;3.33;3.03;;;3.60;99.90;;;;;;5099874;28;20182;-85
2023/01/15 07:28:40;;;;;;;3.30;3.00;;;3.60;99.90;;;;;;5100313;28;20177;-86
2023/01/15 07:31:06;;;;;;;6.73;3.30;;;3.70;99.90;;;;;;5117917;28;20555;-85
2023/01/15 07:33:32;;;;;;;3.40;3.10;;;3.80;99.90;;;;;;5118023;28;20219;-85
2023/01/15 07:36:01;;;;;;;4.03;3.30;;;3.80;99.90;;;;;;5118455;28;20693;-85
2023/01/15 07:38:27;;;;;;;4.73;3.37;;;3.90;99.90;;;;;;5117879;28;20162;-85
2023/01/15 07:51:54;;;;;;;4.17;3.70;;;4.60;99.90;;;;;;5117137;28;20245;-85
2023/01/15 07:54:19;;;;;;;5.07;4.30;;;4.60;99.90;;;;;;5117802;28;20261;-84
2023/01/15 07:56:45;;;;;;;10.63;5.07;;;4.70;99.90;;;;;;5099260;28;20200;-84
2023/01/15 07:59:12;;;;;;;10.90;4.77;;;4.80;99.90;;;;;;5097641;28;20182;-87
2023/01/15 08:01:41;;;;;;;5.93;4.27;;;4.80;99.90;;;;;;5116519;28;20232;-88
2023/01/15 09:46:28;;;;;;;3.90;3.60;;;7.60;99.90;;;;;;5109665;28;20227;-77
2023/01/15 09:49:03;;;;;;;4.00;3.70;;;7.80;99.90;;;;;;5096054;28;20532;-74
2023/01/15 09:51:37;;;;;;;4.63;3.83;;;7.90;99.90;;;;;;5114647;28;20156;-74
2023/01/15 09:54:22;;;;;;;4.30;3.73;;;8.00;99.90;;;;;;5095676;28;20173;-74
2023/01/15 09:56:48;;;;;;;4.17;3.57;;;8.00;99.90;;;;;;5114267;28;20183;-74
2023/01/15 09:59:30;;;;;;;5.70;4.13;;;8.20;99.90;;;;;;5113722;28;20170;-76
2023/01/15 10:01:56;;;;;;;8.27;3.77;;;8.20;99.90;;;;;;5113595;28;20211;-74
2023/01/15 10:04:39;;;;;;;4.30;3.90;;;8.30;99.90;;;;;;5113350;28;20261;-75
2023/01/15 10:07:21;;;;;;;4.77;3.90;;;8.30;99.90;;;;;;5113432;28;20173;-74
2023/01/15 10:09:58;;;;;;;4.70;4.23;;;8.30;99.90;;;;;;5113726;28;20343;-73
2023/01/15 10:12:37;;;;;;;5.37;4.73;;;8.30;99.90;;;;;;5113951;28;20218;-74
2023/01/15 10:15:06;;;;;;;5.10;4.70;;;8.20;99.90;;;;;;5113533;28;20162;-75
2023/01/15 10:17:46;;;;;;;5.70;5.07;;;8.30;99.90;;;;;;5113984;28;20615;-76
2023/01/15 10:20:33;;;;;;;5.00;4.47;;;8.20;99.90;;;;;;5113852;28;20176;-76
2023/01/15 10:23:10;;;;;;;6.87;4.77;;;8.20;99.90;;;;;;5113385;28;20201;-75
2023/01/15 10:25:48;;;;;;;5.20;4.70;;;8.20;99.90;;;;;;5113974;28;20524;-76
2023/01/15 10:28:52;;;;;;;5.10;4.60;;;8.20;99.90;;;;;;5114037;28;20175;-74
2023/01/15 10:31:21;;;;;;;4.23;3.83;;;8.30;99.90;;;;;;5095910;28;20177;-76
2023/01/15 10:33:47;;;;;;;7.90;4.50;;;8.40;99.90;;;;;;5113677;28;20255;-75
2023/01/15 10:36:17;;;;;;;5.20;4.67;;;8.50;99.90;;;;;;5114853;28;20632;-74
2023/01/15 10:39:03;;;;;;;9.00;5.03;;;8.40;99.90;;;;;;5113928;28;20245;-65
2023/01/15 10:41:56;;;;;;;5.03;4.53;;;8.40;99.90;;;;;;5122163;27;20224;-65
2023/01/15 10:44:39;;;;;;;7.03;4.60;;;8.50;99.90;;;;;;5132868;27;20520;-68
2023/01/15 10:47:12;;;;;;;5.20;4.70;;;8.60;99.90;;;;;;5133093;27;20172;-68
2023/01/15 10:49:40;;;;;;;7.23;4.80;;;8.60;99.90;;;;;;5115463;27;20239;-69
2023/01/15 10:52:32;;;;;;;6.20;4.80;;;8.60;99.90;;;;;;5132600;27;20267;-68
2023/01/15 10:55:16;;;;;;;5.43;4.33;;;8.60;99.90;;;;;;5133486;27;20618;-65
2023/01/15 10:58:01;;;;;;;6.20;4.70;;;8.60;99.90;;;;;;5132222;27;20171;-66
2023/01/15 11:00:27;;;;;;;4.97;4.47;;;8.60;99.90;;;;;;5132482;27;20554;-63
2023/01/15 11:03:15;;;;;;;5.57;4.40;;;8.60;99.90;;;;;;5131993;28;20224;-64
2023/01/15 11:05:41;;;;;;;6.90;4.57;;;8.70;99.90;;;;;;5132355;28;20166;-63
2023/01/15 11:08:31;;;;;;;5.77;5.23;;;8.80;99.90;;;;;;5133212;28;20357;-66
2023/01/15 11:11:04;;;;;;;5.13;4.20;;;8.90;99.90;;;;;;5132843;28;20188;-68
2023/01/15 11:19:36;;;;;;;4.57;4.00;;;8.90;99.90;;;;;;5112137;28;20487;-69
2023/01/15 11:22:19;;;;;;;4.23;3.80;;;9.00;99.90;;;;;;5111229;28;20192;-70
2023/01/15 11:24:57;;;;;;;6.27;4.27;;;9.10;99.90;;;;;;5111797;28;20276;-67
2023/01/15 11:27:27;;;;;;;4.40;3.90;;;9.20;99.90;;;;;;5112414;28;20160;-67
2023/01/15 11:29:56;;;;;;;5.73;4.53;;;9.20;99.90;;;;;;5112540;28;20177;-63
2023/01/15 11:32:29;;;;;;;5.13;4.63;;;9.20;99.90;;;;;;5112781;28;20226;-67
2023/01/15 11:35:17;;;;;;;5.47;4.77;;;9.30;99.90;;;;;;5104375;28;20182;-62
2023/01/15 11:37:44;;;;;;;4.23;3.83;;;9.30;99.90;;;;;;5097529;28;20190;-66
2023/01/15 11:40:23;;;;;;;4.47;4.07;;;9.40;99.90;;;;;;5112275;28;20172;-66
2023/01/15 11:51:45;;;;;;;5.33;4.83;;;9.70;99.90;;;;;;5112892;28;20303;-68
2023/01/15 11:54:14;;;;;;;5.53;5.03;;;9.80;99.90;;;;;;5112562;28;20243;-65
2023/01/15 11:56:44;;;;;;;13.53;5.40;;;9.80;99.90;;;;;;5111374;28;20667;-65
2023/01/15 11:59:18;;;;;;;6.57;4.63;;;9.70;99.90;;;;;;5112387;28;20166;-62
2023/01/15 12:01:58;;;;;;;4.77;4.37;;;9.60;99.90;;;;;;5111807;28;20233;-62
2023/01/15 12:04:47;;;;;;;5.60;4.50;;;9.50;99.90;;;;;;5112778;28;20316;-65
2023/01/15 12:07:14;;;;;;;5.00;4.50;;;9.50;99.90;;;;;;5112191;28;20167;-63
2023/01/15 12:09:42;;;;;;;6.83;4.73;;;9.50;99.90;;;;;;5113285;28;20162;-62
2023/01/15 12:12:17;;;;;;;5.50;4.53;;;9.50;99.90;;;;;;5115449;28;20224;-62
2023/01/15 12:14:59;;;;;;;5.23;4.70;;;9.30;99.90;;;;;;5115521;28;20223;-63
2023/01/15 12:17:28;;;;;;;4.37;4.00;;;9.40;99.90;;;;;;5079593;28;20180;-69
2023/01/15 12:20:02;;;;;;;5.13;4.73;;;9.30;99.90;;;;;;5096428;28;20210;-65
2023/01/15 12:23:00;;;;;;;4.97;4.53;;;9.20;99.90;;;;;;5115394;28;20201;-65
2023/01/15 12:25:47;;;;;;;5.97;5.00;;;9.10;99.90;;;;;;5114498;28;20637;-67
2023/01/15 12:28:50;;;;;;;5.30;4.80;;;9.00;99.90;;;;;;5115497;28;20612;-66
2023/01/15 12:31:28;;;;;;;5.87;5.30;;;9.00;99.90;;;;;;5115509;28;20218;-66
2023/01/15 12:34:05;;;;;;;5.53;5.03;;;8.90;99.90;;;;;;5097056;28;20644;-71
2023/01/15 12:36:36;;;;;;;6.30;4.80;;;8.90;99.90;;;;;;5115087;28;20158;-68
2023/01/15 12:39:12;;;;;;;4.97;4.50;;;9.00;99.90;;;;;;5115079;28;20162;-68
2023/01/15 12:47:44;;;;;;;5.77;5.27;;;8.70;99.90;;;;;;5114846;28;20290;-68
2023/01/15 12:50:28;;;;;;;6.70;4.97;;;8.60;99.90;;;;;;5115335;28;20215;-64
2023/01/15 12:53:31;;;;;;;7.33;5.00;;;8.60;99.90;;;;;;5114870;28;20168;-66
2023/01/15 12:56:01;;;;;;;5.83;5.20;;;8.50;99.90;;;;;;5115440;28;20168;-67
2023/01/15 12:58:50;;;;;;;6.40;5.33;;;8.50;99.90;;;;;;5113841;28;20178;-68
2023/01/15 13:01:20;;;;;;;7.57;5.60;;;8.50;99.90;;;;;;5114648;28;20171;-67
2023/01/15 13:04:17;;;;;;;6.40;5.60;;;8.40;99.90;;;;;;5114395;28;20164;-69
2023/01/15 13:06:47;;;;;;;8.73;5.70;;;8.40;99.90;;;;;;5114411;28;20612;-66
2023/01/15 13:09:30;;;;;;;8.93;5.53;;;8.40;99.90;;;;;;5114621;28;20546;-68
2023/01/15 13:11:56;;;;;;;8.77;5.80;;;8.40;99.90;;;;;;5114469;28;20166;-65
2023/01/15 13:14:23;;;;;;;7.57;5.93;;;8.40;99.90;;;;;;5114144;28;20174;-68
2023/01/15 13:16:49;;;;;;;7.23;5.63;;;8.40;99.90;;;;;;5078058;28;20190;-67
2023/01/15 13:19:20;;;;;;;8.63;5.87;;;8.40;99.90;;;;;;5112159;28;20266;-71
2023/01/15 13:21:51;;;;;;;8.03;5.63;;;8.40;99.90;;;;;;5095367;28;20212;-63
2023/01/15 13:24:30;;;;;;;7.27;5.60;;;8.40;99.90;;;;;;5114270;28;20652;-63
2023/01/15 13:27:01;;;;;;;7.37;5.07;;;8.30;99.90;;;;;;5114663;28;20676;-64
2023/01/15 13:29:54;;;;;;;7.43;5.70;;;8.30;99.90;;;;;;5096476;28;20684;-67
2023/01/15 13:32:25;;;;;;;7.27;5.23;;;8.30;99.90;;;;;;5114758;28;20302;-65
2023/01/15 13:35:04;;;;;;;6.33;5.33;;;8.20;99.90;;;;;;5114210;28;20190;-65
2023/01/15 13:37:48;;;;;;;5.97;4.77;;;8.20;99.90;;;;;;5114638;28;20185;-66
2023/01/15 13:40:40;;;;;;;5.70;5.10;;;8.30;99.90;;;;;;5114656;28;20660;-68
2023/01/15 13:43:08;;;;;;;5.90;5.07;;;8.20;99.90;;;;;;5113961;28;20205;-71
2023/01/15 13:45:47;;;;;;;7.43;5.57;;;8.20;99.90;;;;;;5095363;28;20244;-68
2023/01/15 13:48:32;;;;;;;5.73;4.80;;;8.20;99.90;;;;;;5113941;28;20162;-64
2023/01/15 13:51:00;;;;;;;8.37;5.87;;;8.10;99.90;;;;;;5114469;28;20159;-68
2023/01/15 13:53:46;;;;;;;7.70;5.87;;;8.10;99.90;;;;;;5113770;28;20177;-69
2023/01/15 13:56:16;;;;;;;8.07;5.63;;;8.10;99.90;;;;;;5113926;28;20173;-69
2023/01/15 13:58:57;;;;;;;8.30;5.93;;;8.10;99.90;;;;;;5113495;28;20686;-62
2023/01/15 14:01:24;;;;;;;8.30;5.87;;;8.10;99.90;;;;;;5113488;28;20570;-63
2023/01/15 14:04:08;;;;;;;8.97;6.33;;;8.10;99.90;;;;;;5113358;28;20684;-61
2023/01/15 14:06:49;;;;;;;6.90;6.10;;;8.10;99.90;;;;;;5113679;28;20249;-60
2023/01/15 14:09:17;;;;;;;7.23;5.83;;;8.20;99.90;;;;;;5112771;28;20268;-67
2023/01/15 14:12:02;;;;;;;8.83;5.90;;;8.10;99.90;;;;;;5113121;28;20202;-64
2023/01/15 14:14:55;;;;;;;7.97;6.67;;;8.00;99.90;;;;;;5113185;28;20166;-66
2023/01/15 14:17:53;;;;;;;9.53;7.03;;;7.90;99.90;;;;;;5113181;28;20196;-65
2023/01/15 14:20:46;;;;;;;8.80;6.47;;;7.80;99.90;;;;;;5113529;28;20162;-61
2023/01/15 14:23:37;;;;;;;7.40;6.07;;;7.90;99.90;;;;;;5113316;28;20202;-68
2023/01/15 14:26:26;;;;;;;8.50;6.47;;;7.90;99.90;;;;;;5113293;28;20172;-68
2023/01/15 14:29:21;;;;;;;8.63;6.23;;;7.90;99.90;;;;;;5114103;28;20244;-66
2023/01/15 14:32:02;;;;;;;10.73;6.70;;;7.90;99.90;;;;;;5094258;28;20177;-65
2023/01/15 14:34:34;;;;;;;8.67;6.87;;;8.00;99.90;;;;;;5113254;28;20204;-68
2023/01/15 14:37:24;;;;;;;9.70;6.53;;;8.00;99.90;;;;;;5113661;28;20204;-70
2023/01/15 14:39:57;;;;;;;9.03;6.47;;;8.00;99.90;;;;;;5096143;28;20638;-68
2023/01/15 14:45:17;;;;;;;10.87;6.73;;;7.90;99.90;;;;;;5113271;28;20589;-68
2023/01/15 14:47:52;;;;;;;8.13;6.37;;;7.90;99.90;;;;;;5113159;28;20632;-62
2023/01/15 14:50:33;;;;;;;10.03;7.10;;;7.90;99.90;;;;;;5112785;28;20169;-67
2023/01/15 14:53:10;;;;;;;11.93;7.47;;;7.90;99.90;;;;;;5115761;28;20172;-70
2023/01/15 14:56:00;;;;;;;8.50;7.00;;;7.90;99.90;;;;;;5115595;28;20722;-71
2023/01/15 14:58:47;;;;;;;9.23;6.83;;;7.90;99.90;;;;;;5111046;28;20173;-71
2023/01/15 15:01:40;;;;;;;9.77;8.13;;;7.80;99.90;;;;;;5112901;28;20169;-69
2023/01/15 15:04:35;;;;;;;10.07;7.80;;;7.70;99.90;;;;;;5112711;28;20321;-69
2023/01/15 15:07:06;;;;;;;10.97;6.90;;;7.70;99.90;;;;;;5113184;28;20630;-70
2023/01/15 15:09:40;;;;;;;7.67;6.30;;;7.70;99.90;;;;;;5112675;28;20163;-67
2023/01/15 15:12:37;;;;;;;9.73;6.87;;;7.70;99.90;;;;;;5112794;28;20178;-67
2023/01/15 15:15:03;;;;;;;7.57;6.40;;;7.70;99.90;;;;;;5094450;28;20570;-66
2023/01/15 15:17:31;;;;;;;11.30;6.40;;;7.60;99.90;;;;;;5113323;28;20677;-70
2023/01/15 15:20:17;;;;;;;10.23;6.83;;;7.60;99.90;;;;;;5094440;28;20180;-63
2023/01/15 15:22:47;;;;;;;10.63;7.63;;;7.60;99.90;;;;;;5112768;28;20224;-62
2023/01/15 15:25:21;;;;;;;11.73;8.37;;;7.50;99.90;;;;;;5094617;28;20174;-64
2023/01/15 15:27:47;;;;;;;13.13;8.03;;;7.60;99.90;;;;;;5095392;28;20253;-67
2023/01/15 15:30:15;;;;;;;10.73;7.40;;;7.60;99.90;;;;;;5110517;28;20263;-62
2023/01/15 15:32:43;;;;;;;11.43;7.10;;;7.50;99.90;;;;;;5111252;28;20184;-67
2023/01/15 15:35:26;;;;;;;8.57;6.27;;;7.50;99.90;;;;;;5111955;28;20214;-67
2023/01/15 15:37:53;;;;;;;9.07;7.07;;;7.60;99.90;;;;;;5112530;28;20158;-63
2023/01/15 15:40:22;;;;;;;9.50;6.50;;;7.50;99.90;;;;;;5112207;28;20348;-65
2023/01/15 15:48:52;;;;;;;7.17;6.37;;;7.30;99.90;;;;;;5116611;28;20215;-62
2023/01/15 15:51:50;;;;;;;7.57;6.33;;;7.30;99.90;;;;;;5115652;28;20255;-65
2023/01/15 15:54:20;;;;;;;9.37;6.57;;;7.30;99.90;;;;;;5114809;28;20655;-65
2023/01/15 15:56:58;;;;;;;9.57;6.90;;;7.20;99.90;;;;;;5114998;28;20322;-65
2023/01/15 15:59:31;;;;;;;9.53;6.90;;;7.20;99.90;;;;;;5115084;28;20547;-66
2023/01/15 16:02:06;;;;;;;9.57;7.27;;;7.20;99.90;;;;;;5115966;28;20227;-65
2023/01/15 16:04:32;;;;;;;11.23;7.00;;;7.20;99.90;;;;;;5115710;28;20161;-64
2023/01/15 16:06:58;;;;;;;9.53;6.97;;;7.10;99.90;;;;;;5115430;28;20191;-66
2023/01/15 16:09:24;;;;;;;12.30;7.60;;;7.00;99.90;;;;;;5115387;28;20177;-63